Time;durP1;ratioP1;P1;durP2;ratioP2;P2;SDS_P1;SDS_P2;PMS_P1;PMS_P2;Temp;Humidity;BMP_temperature;BMP_pressure;BME280_temperature;BME280_humidity;BME280_pressure;Samples;Min_cycle;Max_cycle;Signal;HPM_P1;HPM_P2
2023/12/12 00:02:41;;;;;;;23.92;15.43;;;;;;;5.70;66.53;97361.56;10369816;28;20331;-48
2023/12/12 00:07:40;;;;;;;31.52;19.83;;;;;;;5.43;66.90;97318.31;10369871;28;20111;-48
2023/12/12 00:12:39;;;;;;;38.60;23.63;;;;;;;5.34;66.10;97321.66;10370182;28;20035;-48
2023/12/12 00:17:41;;;;;;;35.17;21.80;;;;;;;5.64;67.37;97376.91;10369469;28;20063;-48
2023/12/12 00:22:39;;;;;;;36.55;21.23;;;;;;;5.78;67.70;97377.09;10369055;28;20506;-48
2023/12/12 00:27:38;;;;;;;37.88;24.10;;;;;;;5.72;66.74;97362.44;10369416;28;20570;-48
2023/12/12 00:32:37;;;;;;;38.72;25.83;;;;;;;5.71;67.22;97331.50;10369548;28;20486;-49
2023/12/12 00:37:36;;;;;;;36.00;22.15;;;;;;;5.77;67.65;97344.47;10368612;28;20563;-49
2023/12/12 00:42:35;;;;;;;25.20;16.58;;;;;;;5.78;67.23;97337.59;10367288;28;20147;-48
2023/12/12 00:47:34;;;;;;;18.85;12.00;;;;;;;5.70;67.09;97317.78;10368750;28;20123;-48
2023/12/12 00:52:34;;;;;;;16.65;11.13;;;;;;;5.86;66.93;97326.56;10368057;28;20025;-48
2023/12/12 00:57:33;;;;;;;17.40;10.82;;;;;;;5.50;67.11;97255.78;10368460;28;20613;-49
2023/12/12 01:02:32;;;;;;;15.18;10.65;;;;;;;5.46;67.37;97223.16;10367458;28;20124;-49
2023/12/12 01:07:31;;;;;;;11.88;7.95;;;;;;;6.01;66.62;97314.69;10366580;28;20039;-49
2023/12/12 01:12:30;;;;;;;12.43;8.20;;;;;;;5.99;66.61;97296.63;10367632;28;20032;-49
2023/12/12 01:17:29;;;;;;;18.95;11.48;;;;;;;5.97;65.60;97314.63;10366032;28;20032;-49
2023/12/12 01:22:28;;;;;;;19.48;12.15;;;;;;;5.95;65.09;97289.69;10366461;28;20125;-48
2023/12/12 01:27:27;;;;;;;17.88;11.43;;;;;;;5.64;66.58;97334.88;10366992;28;20031;-48
2023/12/12 01:32:26;;;;;;;18.80;12.32;;;;;;;5.34;67.22;97306.22;10367077;28;20472;-49
2023/12/12 01:37:25;;;;;;;18.33;12.75;;;;;;;5.61;67.98;97358.88;10366462;28;20427;-49
2023/12/12 01:42:24;;;;;;;14.55;9.27;;;;;;;5.78;67.61;97358.19;10365773;28;20629;-48
2023/12/12 01:47:23;;;;;;;17.55;10.77;;;;;;;5.83;67.49;97336.78;10366263;28;20036;-49
2023/12/12 01:52:22;;;;;;;16.45;11.10;;;;;;;5.95;67.06;97354.97;10365895;28;20056;-52
2023/12/12 01:57:23;;;;;;;18.10;10.93;;;;;;;5.79;67.77;97311.88;10365200;28;20055;-49
2023/12/12 02:02:22;;;;;;;17.38;11.90;;;;;;;6.00;67.46;97300.06;10365089;28;20059;-49
2023/12/12 02:07:23;;;;;;;17.15;10.95;;;;;;;5.68;67.96;97249.13;10364407;28;20032;-49
2023/12/12 02:12:22;;;;;;;19.80;12.00;;;;;;;5.99;68.42;97276.00;10366594;28;20136;-49
2023/12/12 02:17:21;;;;;;;17.90;10.65;;;;;;;6.01;68.58;97269.16;10365343;28;20097;-50
2023/12/12 02:22:20;;;;;;;14.60;10.25;;;;;;;6.21;67.86;97276.19;10364185;28;20136;-48
2023/12/12 02:27:19;;;;;;;14.98;10.80;;;;;;;6.14;67.51;97275.28;10366659;28;20116;-49
2023/12/12 02:32:19;;;;;;;10.77;7.57;;;;;;;6.29;67.23;97278.00;10366400;28;20107;-49
2023/12/12 02:37:18;;;;;;;20.40;13.52;;;;;;;6.34;66.45;97307.25;10366045;28;20056;-48
2023/12/12 02:42:16;;;;;;;20.77;13.43;;;;;;;6.07;67.33;97296.69;10366051;28;20119;-49
2023/12/12 02:47:15;;;;;;;17.23;13.00;;;;;;;6.01;67.77;97312.09;10366435;28;20103;-49
2023/12/12 02:52:14;;;;;;;18.02;12.38;;;;;;;5.66;67.78;97228.50;10365575;28;20107;-49
2023/12/12 02:57:13;;;;;;;19.13;11.85;;;;;;;6.22;67.56;97335.47;10365861;28;20982;-49
2023/12/12 03:02:12;;;;;;;11.57;7.97;;;;;;;5.97;64.93;97304.31;10364090;28;20409;-50
2023/12/12 03:07:12;;;;;;;12.02;8.20;;;;;;;6.36;63.86;97326.16;10365728;28;20032;-51
2023/12/12 03:12:11;;;;;;;13.27;9.32;;;;;;;6.57;63.80;97293.69;10364659;28;20120;-49
2023/12/12 03:17:10;;;;;;;13.20;8.23;;;;;;;6.89;63.15;97308.50;10364174;28;20036;-49
2023/12/12 03:22:09;;;;;;;10.82;8.25;;;;;;;5.96;63.17;97147.22;10363198;28;20040;-49
2023/12/12 03:27:08;;;;;;;11.65;8.93;;;;;;;7.07;62.86;97302.59;10363513;28;20171;-49
2023/12/12 03:32:07;;;;;;;15.52;9.85;;;;;;;7.15;62.86;97306.94;10369276;28;20057;-50
2023/12/12 03:37:06;;;;;;;17.75;11.27;;;;;;;6.74;62.36;97289.50;10371417;28;20043;-50
2023/12/12 03:42:05;;;;;;;14.13;9.95;;;;;;;7.10;62.57;97318.97;10370845;28;20055;-49
2023/12/12 03:47:04;;;;;;;15.02;9.18;;;;;;;7.08;61.91;97315.50;10371154;28;20132;-49
2023/12/12 03:52:03;;;;;;;8.70;6.65;;;;;;;7.15;61.52;97324.16;10370340;28;20378;-49
2023/12/12 03:57:03;;;;;;;10.25;6.63;;;;;;;7.35;60.39;97339.72;10370526;28;20135;-49
2023/12/12 04:02:02;;;;;;;8.25;5.65;;;;;;;7.43;58.35;97332.94;10370475;28;20153;-49
2023/12/12 04:07:03;;;;;;;7.60;5.40;;;;;;;7.55;57.60;97311.47;10370145;28;20056;-50
2023/12/12 04:12:02;;;;;;;5.47;4.80;;;;;;;7.99;56.67;97349.47;10369909;28;20056;-49
2023/12/12 04:17:03;;;;;;;6.97;5.28;;;;;;;8.22;56.86;97352.09;10370083;28;20052;-49
2023/12/12 04:22:02;;;;;;;10.15;5.22;;;;;;;7.92;55.39;97327.94;10368551;28;20153;-49
2023/12/12 04:27:01;;;;;;;6.85;5.30;;;;;;;8.22;54.88;97341.75;10369299;28;20035;-49
2023/12/12 04:32:00;;;;;;;7.40;5.68;;;;;;;8.34;54.75;97352.16;10369573;28;20049;-49
2023/12/12 04:37:01;;;;;;;8.55;6.28;;;;;;;8.39;54.77;97381.44;10368950;28;20420;-50
2023/12/12 04:42:00;;;;;;;6.68;5.75;;;;;;;8.23;54.23;97353.84;10368203;28;20505;-49
2023/12/12 04:46:59;;;;;;;10.57;7.35;;;;;;;7.27;54.37;97168.50;10368933;28;20396;-49
2023/12/12 04:51:57;;;;;;;25.70;14.65;;;;;;;8.30;54.13;97338.34;10368958;28;20123;-49
2023/12/12 04:56:56;;;;;;;17.10;13.18;;;;;;;8.31;54.30;97331.44;10368082;28;20032;-49
2023/12/12 05:01:55;;;;;;;15.02;10.57;;;;;;;8.50;54.46;97374.56;10368024;28;20479;-50
2023/12/12 05:06:54;;;;;;;11.38;9.93;;;;;;;8.55;54.49;97410.75;10367902;28;20397;-50
2023/12/12 05:11:53;;;;;;;12.07;9.57;;;;;;;8.21;54.85;97392.59;10368134;28;20033;-50
2023/12/12 05:16:52;;;;;;;8.38;6.53;;;;;;;8.24;55.32;97407.25;10365856;28;20583;-49
2023/12/12 05:21:51;;;;;;;9.77;7.30;;;;;;;8.27;55.24;97430.53;10367059;28;20120;-50
2023/12/12 05:26:50;;;;;;;8.25;6.32;;;;;;;8.30;55.36;97430.56;10366853;28;20110;-49
2023/12/12 05:31:49;;;;;;;8.98;6.10;;;;;;;8.11;55.27;97395.16;10366896;28;20155;-50
2023/12/12 05:36:48;;;;;;;10.13;6.60;;;;;;;8.33;55.45;97425.38;10366763;28;20064;-50
2023/12/12 05:41:48;;;;;;;9.18;6.68;;;;;;;8.24;55.49;97415.88;10365925;28;20135;-55
2023/12/12 05:46:47;;;;;;;11.20;7.93;;;;;;;8.22;55.38;97406.38;10366047;28;20522;-49
2023/12/12 05:51:46;;;;;;;;;;;;;;;8.30;55.67;97422.78;10367090;28;20071;-49
2023/12/12 05:56:45;;;;;;;9.88;6.72;;;;;;;8.18;55.95;97386.59;10365726;28;19951;-49
2023/12/12 06:01:44;;;;;;;8.95;6.68;;;;;;;7.95;55.63;97364.13;10365310;28;20045;-50
2023/12/12 06:06:44;;;;;;;9.55;6.88;;;;;;;8.29;55.83;97410.72;10365421;28;20106;-50
2023/12/12 06:11:43;;;;;;;9.55;5.60;;;;;;;8.21;55.67;97396.91;10364995;28;20157;-49
2023/12/12 06:16:42;;;;;;;13.07;8.50;;;;;;;7.99;55.86;97370.13;10362539;28;20124;-49
2023/12/12 06:21:41;;;;;;;13.32;7.70;;;;;;;8.26;55.67;97421.06;10360377;28;20140;-52
2023/12/12 06:26:40;;;;;;;9.82;7.18;;;;;;;8.36;55.84;97427.97;10365611;28;20120;-49
2023/12/12 06:31:39;;;;;;;9.73;6.32;;;;;;;8.12;55.89;97402.06;10366872;28;20029;-49
2023/12/12 06:36:38;;;;;;;8.40;6.80;;;;;;;8.17;56.02;97421.03;10364556;28;20575;-50
2023/12/12 06:41:37;;;;;;;12.48;7.25;;;;;;;8.24;55.78;97415.88;10358382;28;20411;-51
2023/12/12 06:46:36;;;;;;;10.48;6.60;;;;;;;8.28;55.84;97419.34;10364316;28;20116;-49
2023/12/12 06:51:35;;;;;;;9.95;6.53;;;;;;;8.55;55.91;97433.19;10365311;28;20063;-49
2023/12/12 06:56:34;;;;;;;11.48;7.10;;;;;;;8.50;55.39;97410.78;10365380;28;20809;-50
2023/12/12 07:01:33;;;;;;;11.63;8.48;;;;;;;8.82;55.42;97435.81;10366350;28;20857;-49
2023/12/12 07:06:32;;;;;;;11.02;7.18;;;;;;;9.00;54.90;97432.38;10370062;28;20043;-49
2023/12/12 07:11:31;;;;;;;;;;;;;;;9.27;54.69;97459.09;10374910;28;20055;-49
2023/12/12 07:16:30;;;;;;;17.25;8.50;;;;;;;9.41;54.16;97462.56;10372546;28;19919;-50
2023/12/12 07:21:30;;;;;;;44.47;28.38;;;;;;;9.40;54.84;97463.44;10373172;28;20128;-50
2023/12/12 07:26:29;;;;;;;42.63;27.55;;;;;;;9.08;55.44;97445.31;10371788;28;20064;-48
2023/12/12 07:31:28;;;;;;;51.90;25.92;;;;;;;8.91;55.99;97441.00;10364012;28;20155;-48
2023/12/12 07:36:27;;;;;;;;;;;;;;;9.24;55.85;97482.41;10372799;28;20056;-48
2023/12/12 07:41:26;;;;;;;43.60;26.08;;;;;;;9.20;55.96;97481.53;10373292;28;19952;-47
2023/12/12 07:46:25;;;;;;;43.08;23.92;;;;;;;9.28;56.64;97485.03;10372720;28;20067;-48
2023/12/12 07:51:24;;;;;;;53.80;31.58;;;;;;;9.48;56.66;97490.19;10369140;28;20128;-51
2023/12/12 07:56:23;;;;;;;42.92;24.92;;;;;;;9.57;56.37;97486.72;10361016;28;20102;-51
2023/12/12 08:01:23;;;;;;;31.35;21.88;;;;;;;9.63;56.17;97493.63;10366765;28;20064;-51
2023/12/12 08:06:21;;;;;;;41.25;23.35;;;;;;;9.54;56.13;97481.56;10366698;28;20032;-49
2023/12/12 08:11:24;;;;;;;24.60;14.55;;;;;;;9.54;55.79;97497.97;10367325;28;20407;-49
2023/12/12 08:16:24;;;;;;;10.80;7.90;;;;;;;9.49;55.49;97475.53;10371085;28;20052;-50
2023/12/12 08:21:23;;;;;;;25.00;18.48;;;;;;;9.60;54.48;97481.53;10371798;28;20154;-49
2023/12/12 08:26:22;;;;;;;9.45;6.80;;;;;;;9.71;54.42;97490.16;10370100;28;20032;-49
2023/12/12 08:31:21;;;;;;;14.10;6.63;;;;;;;9.81;54.40;97482.38;10371256;28;20056;-49
2023/12/12 08:36:20;;;;;;;8.00;6.35;;;;;;;9.95;54.52;97484.03;10371440;28;20024;-49
2023/12/12 08:41:20;;;;;;;10.23;6.45;;;;;;;10.08;53.53;97484.88;10370538;28;20057;-49
2023/12/12 08:46:22;;;;;;;9.02;6.47;;;;;;;10.23;54.25;97478.78;10370512;28;20460;-49
2023/12/12 08:51:23;;;;;;;9.82;5.38;;;;;;;10.42;53.53;97471.75;10370703;28;20048;-50
2023/12/12 08:56:22;;;;;;;7.95;4.80;;;;;;;10.67;53.83;97476.84;10370209;28;20991;-49
2023/12/12 09:01:21;;;;;;;14.05;6.30;;;;;;;10.94;52.68;97452.44;10369961;28;20479;-50
2023/12/12 09:06:20;;;;;;;6.85;4.85;;;;;;;11.29;52.21;97446.13;10370249;28;20519;-50
2023/12/12 09:11:19;;;;;;;9.63;5.28;;;;;;;11.59;51.62;97447.56;10369637;28;20064;-50
2023/12/12 09:16:18;;;;;;;5.90;5.15;;;;;;;11.77;51.22;97446.53;10366339;28;20074;-50
2023/12/12 09:21:17;;;;;;;6.18;5.07;;;;;;;11.77;50.77;97416.19;10367214;28;20480;-49
2023/12/12 09:26:18;;;;;;;7.35;5.63;;;;;;;12.19;50.57;97450.38;10368818;28;20575;-50
2023/12/12 09:31:27;;;;;;;7.82;4.78;;;;;;;12.26;49.64;97456.34;10363448;28;20068;-49
2023/12/12 09:36:26;;;;;;;6.28;5.03;;;;;;;11.59;49.17;97367.00;10365234;28;20121;-50
2023/12/12 09:41:25;;;;;;;7.15;5.85;;;;;;;11.99;49.61;97427.19;10366573;28;20037;-51
2023/12/12 09:46:25;;;;;;;8.68;5.10;;;;;;;11.99;48.99;97423.72;10363241;28;20854;-49
2023/12/12 09:51:24;;;;;;;8.40;5.95;;;;;;;12.39;49.42;97459.69;10367763;28;20127;-49
2023/12/12 09:56:24;;;;;;;6.45;5.78;;;;;;;12.45;48.74;97457.88;10367336;28;20111;-49
2023/12/12 10:01:26;;;;;;;6.95;6.25;;;;;;;11.14;48.13;97184.84;10364898;28;20123;-49
2023/12/12 10:06:28;;;;;;;7.95;5.90;;;;;;;12.79;48.04;97422.69;10367243;28;20059;-49
2023/12/12 10:11:28;;;;;;;10.77;6.65;;;;;;;12.32;47.29;97367.84;10364598;28;20481;-50
2023/12/12 10:16:30;;;;;;;7.15;6.13;;;;;;;12.79;47.54;97436.59;10363756;28;20111;-49
2023/12/12 10:21:30;;;;;;;9.00;5.97;;;;;;;12.84;47.66;97429.56;10358888;28;22438;-50
2023/12/12 10:26:31;;;;;;;8.13;7.00;;;;;;;12.97;48.24;97456.25;10368023;28;20064;-50
2023/12/12 10:31:30;;;;;;;8.80;6.15;;;;;;;13.13;47.87;97451.66;10363967;28;20128;-50
2023/12/12 10:36:30;;;;;;;7.20;6.45;;;;;;;13.08;47.25;97440.47;10362623;28;20040;-53
2023/12/12 10:41:29;;;;;;;9.07;6.22;;;;;;;12.85;47.36;97399.16;10364869;28;20491;-51
2023/12/12 10:46:30;;;;;;;6.20;5.55;;;;;;;13.14;46.97;97420.41;10368039;28;20087;-52
2023/12/12 10:51:29;;;;;;;8.10;5.80;;;;;;;12.42;46.64;97280.97;10366115;28;20123;-50
2023/12/12 10:56:35;;;;;;;;;;;;;;;13.53;46.05;97456.22;10365238;28;20088;-51
2023/12/12 11:01:34;;;;;;;6.50;5.82;;;;;;;13.61;46.26;97449.16;10363270;28;19960;-52
2023/12/12 11:06:34;;;;;;;8.38;6.35;;;;;;;13.65;46.15;97429.09;10362413;28;20052;-50
2023/12/12 11:11:34;;;;;;;7.28;6.40;;;;;;;13.86;46.03;97407.81;10366012;28;20132;-50
2023/12/12 11:16:33;;;;;;;7.13;6.43;;;;;;;13.87;45.50;97408.69;10366595;28;20072;-51
2023/12/12 11:21:46;;;;;;;9.30;6.88;;;;;;;14.02;45.77;97424.03;10364319;28;20069;-50
2023/12/12 11:26:52;;;;;;;6.13;5.53;;;;;;;13.78;45.79;97409.72;10364067;28;20066;-50
2023/12/12 11:32:00;;;;;;;8.68;5.50;;;;;;;13.87;45.88;97412.16;10360489;28;20116;-50
2023/12/12 11:36:59;;;;;;;9.00;6.07;;;;;;;13.88;45.71;97429.50;10364495;28;20116;-50
2023/12/12 11:42:01;;;;;;;6.00;5.40;;;;;;;13.81;45.91;97399.22;10361708;28;20120;-50
2023/12/12 11:47:01;;;;;;;5.95;5.45;;;;;;;13.80;45.85;97405.34;10358717;28;20072;-50
2023/12/12 11:52:00;;;;;;;7.75;6.20;;;;;;;13.91;45.70;97408.63;10359801;28;20060;-50
2023/12/12 11:57:01;;;;;;;6.25;5.30;;;;;;;14.06;45.20;97402.22;10369948;28;20029;-50
2023/12/12 12:02:00;;;;;;;6.50;5.47;;;;;;;14.11;45.21;97392.53;10370099;28;20059;-51
2023/12/12 12:07:00;;;;;;;6.22;5.63;;;;;;;14.24;44.89;97407.91;10370645;28;20036;-51
2023/12/12 12:11:59;;;;;;;6.72;6.03;;;;;;;14.24;44.69;97398.38;10371690;28;20116;-50
2023/12/12 12:16:59;;;;;;;7.18;6.10;;;;;;;13.76;44.20;97315.00;10370834;28;20108;-50
2023/12/12 12:22:06;;;;;;;8.05;5.90;;;;;;;14.24;44.21;97400.09;10371808;28;20516;-52
2023/12/12 12:27:05;;;;;;;7.75;6.22;;;;;;;14.21;44.44;97393.19;10370735;28;20072;-51
2023/12/12 12:32:15;;;;;;;8.70;5.72;;;;;;;14.27;44.16;97413.94;10371462;28;20560;-50
2023/12/12 12:37:34;;;;;;;9.95;6.00;;;;;;;14.23;43.55;97401.84;10373026;28;20128;-51
2023/12/12 12:42:37;;;;;;;5.95;5.45;;;;;;;14.08;43.92;97391.75;10368093;28;20732;-51
2023/12/12 12:47:36;;;;;;;8.73;6.30;;;;;;;13.96;43.60;97404.16;10372221;28;20129;-50
2023/12/12 12:52:35;;;;;;;7.55;6.75;;;;;;;14.02;43.87;97417.97;10369388;28;20023;-50
2023/12/12 12:57:34;;;;;;;6.15;5.55;;;;;;;13.20;44.13;97273.50;10366811;28;20049;-50
2023/12/12 13:02:33;;;;;;;7.18;6.30;;;;;;;13.85;44.10;97363.53;10371237;28;20480;-50
2023/12/12 13:07:33;;;;;;;8.80;6.25;;;;;;;13.81;44.36;97360.09;10370308;28;20045;-50
2023/12/12 13:12:32;;;;;;;7.85;6.43;;;;;;;14.18;45.03;97433.25;10368530;28;20147;-50
2023/12/12 13:17:31;;;;;;;8.73;6.70;;;;;;;14.12;44.92;97429.91;10369929;28;20067;-50
2023/12/12 13:22:30;;;;;;;;;;;;;;;14.09;44.91;97436.06;10367633;28;20124;-50
2023/12/12 13:27:29;;;;;;;9.07;6.03;;;;;;;13.96;45.31;97434.56;10367624;28;19982;-51
2023/12/12 13:32:28;;;;;;;8.52;6.60;;;;;;;13.97;45.14;97445.00;10367896;28;20111;-52
2023/12/12 13:37:27;;;;;;;9.68;7.18;;;;;;;13.44;45.33;97375.56;10365853;28;20040;-52
2023/12/12 13:42:25;;;;;;;9.40;6.72;;;;;;;13.81;45.43;97446.19;10364726;28;20035;-52
2023/12/12 13:47:29;;;;;;;9.27;6.88;;;;;;;13.27;45.94;97355.88;10366456;28;20052;-50
2023/12/12 13:52:30;;;;;;;9.02;8.13;;;;;;;13.60;45.76;97439.59;10367919;28;20069;-52
2023/12/12 13:57:29;;;;;;;13.05;8.95;;;;;;;13.25;46.07;97398.50;10365200;28;20056;-52
2023/12/12 14:02:28;;;;;;;12.77;9.90;;;;;;;13.38;46.49;97452.13;10364239;28;20032;-52
2023/12/12 14:07:27;;;;;;;11.50;9.52;;;;;;;13.23;46.59;97437.59;10367496;28;20033;-52
2023/12/12 14:12:26;;;;;;;8.27;6.60;;;;;;;12.97;46.80;97443.22;10367397;28;20029;-52
2023/12/12 14:17:25;;;;;;;11.63;8.02;;;;;;;12.77;47.08;97445.31;10366847;28;20052;-50
2023/12/12 14:22:24;;;;;;;10.20;7.70;;;;;;;12.48;47.58;97451.75;10367568;28;20132;-50
2023/12/12 14:27:24;;;;;;;12.85;9.55;;;;;;;12.35;47.65;97456.28;10366716;28;20031;-51
2023/12/12 14:32:22;;;;;;;12.82;10.45;;;;;;;12.13;47.91;97455.63;10366756;28;20056;-50
2023/12/12 14:37:22;;;;;;;12.38;8.90;;;;;;;11.82;48.48;97458.59;10366369;28;20033;-54
2023/12/12 14:42:23;;;;;;;14.57;9.45;;;;;;;11.33;49.04;97401.06;10364739;28;20120;-50
2023/12/12 14:47:22;;;;;;;10.07;9.02;;;;;;;11.23;49.26;97421.06;10366113;28;20120;-50
2023/12/12 14:52:21;;;;;;;10.57;7.97;;;;;;;11.18;49.73;97451.41;10367212;28;20108;-51
2023/12/12 14:57:20;;;;;;;9.27;7.07;;;;;;;10.87;50.21;97451.66;10366434;28;20132;-49
2023/12/12 15:02:19;;;;;;;8.48;7.20;;;;;;;10.89;50.49;97470.66;10366771;28;20043;-49
2023/12/12 15:07:18;;;;;;;7.75;6.63;;;;;;;10.32;50.61;97410.44;10365483;28;20495;-50
2023/12/12 15:12:17;;;;;;;8.13;6.43;;;;;;;10.38;51.39;97447.59;10366373;28;20033;-51
2023/12/12 15:17:16;;;;;;;8.90;6.18;;;;;;;10.36;51.29;97469.22;10365856;28;20132;-51
2023/12/12 15:22:15;;;;;;;;;;;;;;;10.28;52.09;97476.16;10366741;28;20132;-50
2023/12/12 15:27:14;;;;;;;8.60;5.97;;;;;;;10.08;52.66;97473.66;10369455;28;19962;-51
2023/12/12 15:32:12;;;;;;;7.25;6.53;;;;;;;10.05;52.64;97490.09;10373987;28;20032;-50
2023/12/12 15:37:11;;;;;;;20.70;12.80;;;;;;;9.84;53.00;97449.56;10373531;28;20127;-52
2023/12/12 15:42:10;;;;;;;31.38;18.63;;;;;;;9.62;54.23;97422.81;10373598;28;20506;-50
2023/12/12 15:47:09;;;;;;;30.15;23.30;;;;;;;9.45;55.24;97434.97;10373110;28;20730;-53
2023/12/12 15:52:09;;;;;;;46.38;30.85;;;;;;;8.84;55.78;97390.09;10373926;28;20031;-50
2023/12/12 15:57:08;;;;;;;42.08;30.17;;;;;;;9.26;56.79;97486.72;10372680;28;20168;-51
2023/12/12 16:02:07;;;;;;;30.73;23.00;;;;;;;8.91;56.43;97453.06;10373029;28;20060;-50
2023/12/12 16:07:06;;;;;;;28.00;20.08;;;;;;;9.00;56.61;97491.03;10372345;28;20456;-50
2023/12/12 16:12:06;;;;;;;31.05;21.35;;;;;;;8.83;57.00;97489.28;10372612;28;20064;-52
2023/12/12 16:17:05;;;;;;;25.90;19.23;;;;;;;8.54;57.15;97465.09;10371820;28;20060;-50
2023/12/12 16:22:04;;;;;;;24.95;16.42;;;;;;;8.46;57.52;97468.53;10372237;28;20049;-50
2023/12/12 16:27:03;;;;;;;26.55;17.20;;;;;;;8.04;57.19;97415.81;10369885;28;20508;-49
2023/12/12 16:32:02;;;;;;;30.65;21.65;;;;;;;7.96;57.65;97422.66;10370937;28;20115;-50
2023/12/12 16:37:01;;;;;;;37.47;25.42;;;;;;;8.06;57.97;97463.22;10370856;28;20115;-50
2023/12/12 16:42:04;;;;;;;35.97;23.45;;;;;;;7.94;58.24;97459.69;10371178;28;20112;-49
2023/12/12 16:47:04;;;;;;;26.98;20.23;;;;;;;7.79;58.79;97463.06;10371280;28;20075;-50
2023/12/12 16:52:03;;;;;;;27.00;18.75;;;;;;;7.71;59.06;97473.38;10370329;28;20072;-50
2023/12/12 16:57:04;;;;;;;22.42;18.13;;;;;;;7.70;59.19;97502.63;10370556;28;20104;-49
2023/12/12 17:02:03;;;;;;;29.05;19.25;;;;;;;7.50;59.99;97474.09;10369467;28;20067;-50
2023/12/12 17:07:03;;;;;;;61.25;45.60;;;;;;;7.49;59.62;97493.00;10369478;28;20031;-51
2023/12/12 17:12:04;;;;;;;46.30;33.10;;;;;;;7.28;60.61;97505.72;10370615;28;20496;-50
2023/12/12 17:17:03;;;;;;;45.45;30.48;;;;;;;7.09;61.59;97472.03;10368715;28;20055;-50
2023/12/12 17:22:04;;;;;;;31.17;22.02;;;;;;;7.11;61.06;97492.69;10367116;28;20071;-49
2023/12/12 17:27:03;;;;;;;31.17;21.70;;;;;;;6.95;62.34;97494.28;10365853;28;20145;-50
2023/12/12 17:32:06;;;;;;;36.65;23.63;;;;;;;6.75;62.28;97466.59;10367394;28;20107;-50
2023/12/12 17:37:05;;;;;;;32.85;24.70;;;;;;;6.82;62.56;97491.59;10364643;28;20052;-49
2023/12/12 17:42:05;;;;;;;49.30;35.55;;;;;;;6.76;63.05;97485.50;10367431;28;20115;-51
2023/12/12 17:47:04;;;;;;;;;;;;;;;6.72;63.27;97483.72;10366630;28;20476;-49
2023/12/12 17:52:03;;;;;;;59.88;37.40;;;;;;;6.61;63.31;97479.34;10366658;28;20302;-50
2023/12/12 17:57:02;;;;;;;60.47;38.33;;;;;;;6.51;63.46;97481.78;10365035;28;20163;-49
2023/12/12 18:02:02;;;;;;;66.22;42.22;;;;;;;6.43;63.93;97484.31;10367257;28;20072;-50
2023/12/12 18:07:01;;;;;;;76.57;49.55;;;;;;;6.19;64.97;97472.88;10367205;28;20060;-49
2023/12/12 18:12:01;;;;;;;84.60;54.90;;;;;;;6.03;66.78;97477.81;10367444;28;20052;-50
2023/12/12 18:17:03;;;;;;;81.97;51.65;;;;;;;5.98;66.38;97483.78;10380250;28;20077;-49
2023/12/12 18:22:02;;;;;;;87.65;56.22;;;;;;;4.86;66.37;97296.13;10367125;28;20073;-50
2023/12/12 18:27:01;;;;;;;90.82;56.35;;;;;;;4.86;66.64;97309.81;10366582;28;20064;-49
2023/12/12 18:32:00;;;;;;;101.03;61.70;;;;;;;5.78;67.55;97480.06;10366810;28;20059;-50
2023/12/12 18:36:59;;;;;;;96.10;59.92;;;;;;;5.77;67.71;97491.22;10366283;28;20049;-50
2023/12/12 18:41:58;;;;;;;110.90;67.20;;;;;;;5.43;68.61;97465.00;10366039;28;20147;-49
2023/12/12 18:46:57;;;;;;;112.82;72.35;;;;;;;5.53;68.36;97484.00;10365244;28;20104;-50
2023/12/12 18:51:57;;;;;;;128.55;77.53;;;;;;;5.53;69.16;97496.88;10366475;28;20033;-50
2023/12/12 18:56:56;;;;;;;169.55;102.22;;;;;;;5.42;69.76;97499.31;10366070;28;20048;-52
2023/12/12 19:01:55;;;;;;;145.60;87.57;;;;;;;5.28;70.51;97505.94;10370039;28;20033;-52
2023/12/12 19:07:00;;;;;;;137.18;84.97;;;;;;;5.18;70.63;97514.34;10375154;28;20127;-50
2023/12/12 19:11:59;;;;;;;135.70;82.13;;;;;;;4.92;70.94;97491.59;10374755;28;20555;-50
2023/12/12 19:16:58;;;;;;;99.10;56.47;;;;;;;4.78;71.09;97483.63;10373751;28;20120;-51
2023/12/12 19:21:56;;;;;;;72.07;44.38;;;;;;;3.97;70.94;97338.34;10371532;28;20516;-52
2023/12/12 19:26:55;;;;;;;74.80;46.75;;;;;;;5.07;71.47;97527.91;10373546;28;20055;-51
2023/12/12 19:31:55;;;;;;;72.80;45.55;;;;;;;5.05;71.71;97534.72;10371951;28;20064;-51
2023/12/12 19:36:54;;;;;;;80.65;48.72;;;;;;;4.88;72.07;97512.97;10371068;28;20063;-50
2023/12/12 19:41:53;;;;;;;78.38;49.53;;;;;;;5.00;72.72;97526.06;10372341;28;20448;-49
2023/12/12 19:46:52;;;;;;;91.88;58.70;;;;;;;4.75;72.72;97508.44;10371047;28;20485;-51
2023/12/12 19:51:51;;;;;;;118.05;74.10;;;;;;;4.93;72.60;97537.91;10372883;28;20463;-50
2023/12/12 19:56:50;;;;;;;109.68;70.18;;;;;;;4.33;72.93;97443.44;10372830;28;20025;-50
2023/12/12 20:01:49;;;;;;;113.20;71.00;;;;;;;4.47;72.73;97475.38;10370937;28;20599;-50
2023/12/12 20:06:48;;;;;;;90.40;60.10;;;;;;;4.76;73.40;97518.75;10370747;28;20749;-51
2023/12/12 20:11:47;;;;;;;118.78;76.88;;;;;;;4.32;74.10;97464.84;10372355;28;20053;-50
2023/12/12 20:16:46;;;;;;;103.75;66.65;;;;;;;4.53;73.96;97518.31;10370420;28;20031;-50
2023/12/12 20:21:45;;;;;;;120.32;77.68;;;;;;;4.42;74.36;97517.25;10369414;28;20049;-51
2023/12/12 20:26:44;;;;;;;119.57;71.00;;;;;;;4.08;75.09;97503.75;10370213;28;20131;-50
2023/12/12 20:31:43;;;;;;;116.63;74.10;;;;;;;4.15;75.72;97530.41;10369056;28;20432;-48
2023/12/12 20:36:42;;;;;;;106.85;66.93;;;;;;;4.21;75.67;97539.09;10369131;28;20285;-49
2023/12/12 20:41:44;;;;;;;;;;;;;;;4.09;77.17;97531.16;10369633;28;20489;-48
2023/12/12 20:46:45;;;;;;;94.18;59.63;;;;;;;3.75;76.67;97486.81;10368285;28;20051;-48
2023/12/12 20:51:45;;;;;;;94.38;58.65;;;;;;;3.83;77.19;97513.50;10368720;28;20112;-48
2023/12/12 20:56:44;;;;;;;79.28;48.47;;;;;;;3.79;77.39;97509.13;10368745;28;20144;-50
2023/12/12 21:01:47;;;;;;;90.50;55.83;;;;;;;3.68;78.43;97513.16;10370386;28;20492;-48
2023/12/12 21:06:46;;;;;;;101.47;63.72;;;;;;;3.80;78.40;97517.69;10368223;28;20068;-49
2023/12/12 21:11:45;;;;;;;110.18;66.18;;;;;;;3.54;77.95;97468.34;10369318;28;20079;-50
2023/12/12 21:16:44;;;;;;;135.43;82.53;;;;;;;3.44;78.43;97463.03;10369963;28;20031;-48
2023/12/12 21:21:43;;;;;;;150.40;93.68;;;;;;;3.38;80.14;97493.69;10369112;28;20055;-50
2023/12/12 21:26:42;;;;;;;140.50;91.75;;;;;;;3.39;80.06;97479.16;10368210;28;20376;-50
2023/12/12 21:31:41;;;;;;;150.93;90.68;;;;;;;3.47;81.14;97512.66;10368981;28;20116;-51
2023/12/12 21:36:40;;;;;;;135.10;80.40;;;;;;;3.35;80.98;97493.59;10366833;28;20043;-51
2023/12/12 21:41:40;;;;;;;144.27;90.43;;;;;;;3.27;80.50;97476.31;10368261;28;20440;-51
2023/12/12 21:46:39;;;;;;;114.30;68.88;;;;;;;3.26;80.93;97480.59;10368729;28;20556;-48
2023/12/12 21:51:43;;;;;;;52.53;31.45;;;;;;;2.90;81.07;97450.66;10366528;28;20476;-49
2023/12/12 21:56:42;;;;;;;72.13;41.90;;;;;;;3.25;80.92;97511.31;10366071;28;20504;-48
2023/12/12 22:01:47;;;;;;;53.75;32.83;;;;;;;3.13;81.89;97502.50;10367756;28;20068;-49
2023/12/12 22:06:48;;;;;;;52.10;34.13;;;;;;;3.11;82.54;97503.28;10368053;28;20137;-49
2023/12/12 22:11:47;;;;;;;63.40;36.17;;;;;;;2.78;81.92;97450.38;10365341;28;20091;-49
2023/12/12 22:16:45;;;;;;;96.18;50.95;;;;;;;3.00;81.88;97498.78;10367771;28;20028;-48
2023/12/12 22:21:44;;;;;;;89.38;46.35;;;;;;;2.96;81.40;97468.75;10366880;28;20059;-49
2023/12/12 22:26:43;;;;;;;76.47;41.17;;;;;;;3.08;81.26;97483.56;10366705;28;20480;-49
2023/12/12 22:31:42;;;;;;;65.35;39.65;;;;;;;2.56;81.78;97397.75;10367047;28;20511;-50
2023/12/12 22:36:42;;;;;;;68.20;45.10;;;;;;;2.70;82.93;97445.06;10366111;28;20510;-50
2023/12/12 22:41:41;;;;;;;60.55;40.22;;;;;;;2.66;82.92;97421.91;10365817;28;20052;-50
2023/12/12 22:46:40;;;;;;;61.97;38.72;;;;;;;2.56;83.23;97367.00;10367016;28;20029;-50
2023/12/12 22:51:40;;;;;;;65.53;40.10;;;;;;;2.50;84.28;97395.03;10365807;28;20580;-49
2023/12/12 22:56:39;;;;;;;90.75;54.22;;;;;;;2.74;84.54;97454.53;10366129;28;20048;-50
2023/12/12 23:01:43;;;;;;;98.63;57.35;;;;;;;2.08;85.66;97381.16;10366500;28;21439;-49
2023/12/12 23:06:42;;;;;;;97.20;58.67;;;;;;;2.16;85.23;97373.66;10365671;28;20154;-50